Terminal Aerodrome Forecast
Issued by NWS Greer, SC

Home | Current Version | Previous Version | Text Only | Print | Product List | Glossary On
Versions: 1 2 3 4 5 6 7 8 9 10 11 12 13 14 15 16 17 18 19 20 21 22 23 24 25 26
000
FTUS42 KGSP 051725
TAFAVL
TAF
KAVL 051725Z 0518/0618 16003KT P6SM BKN060
     FM060000 17003KT P6SM SCT060
     FM060200 00000KT P6SM SCT200
      TEMPO 0610/0612 5SM BR FEW250
     FM061200 34005KT P6SM FEW250=

USA.gov is the U.S. government's official web portal to all federal, state and local government web resources and services.